Time;durP1;ratioP1;P1;durP2;ratioP2;P2;SDS_P1;SDS_P2;PMS_P1;PMS_P2;Temp;Humidity;BMP_temperature;BMP_pressure;BME280_temperature;BME280_humidity;BME280_pressure;Samples;Min_cycle;Max_cycle;Signal;HPM_P1;HPM_P2
2022/05/04 00:00:10;;;;;;;12.68;5.60;;;;;;;10.25;62.99;101933.38;5045522;28;20021;-68
2022/05/04 00:02:40;;;;;;;13.73;5.57;;;;;;;10.17;63.11;101931.41;5048583;28;20020;-69
2022/05/04 00:05:06;;;;;;;14.30;5.53;;;;;;;10.24;63.14;101935.19;5045501;28;20512;-69
2022/05/04 00:07:31;;;;;;;13.57;5.13;;;;;;;10.26;62.80;101940.34;5048218;28;20028;-69
2022/05/04 00:09:57;;;;;;;13.80;5.70;;;;;;;10.21;63.06;101924.84;5049038;28;20029;-69
2022/05/04 00:12:23;;;;;;;16.55;5.28;;;;;;;10.23;62.97;101924.72;5047696;28;20025;-68
2022/05/04 00:14:49;;;;;;;14.02;5.38;;;;;;;10.24;63.00;101929.03;5050379;28;20071;-68
2022/05/04 00:17:14;;;;;;;13.02;5.40;;;;;;;10.23;62.74;101927.38;5048186;28;20099;-68
2022/05/04 00:19:39;;;;;;;13.05;5.55;;;;;;;10.22;63.09;101933.66;5045683;28;20677;-68
2022/05/04 00:22:04;;;;;;;13.80;5.30;;;;;;;10.23;63.32;101932.69;5047637;28;20070;-68
2022/05/04 00:24:30;;;;;;;11.95;4.95;;;;;;;10.18;63.14;101932.22;5047209;28;20029;-68
2022/05/04 00:26:55;;;;;;;16.30;5.40;;;;;;;10.20;63.23;101931.16;5050742;28;20020;-68
2022/05/04 00:29:21;;;;;;;14.60;4.97;;;;;;;10.19;62.87;101926.78;5045800;28;20466;-68
2022/05/04 00:31:46;;;;;;;13.75;4.63;;;;;;;10.16;62.91;101932.38;5054916;28;20029;-68
2022/05/04 00:34:11;;;;;;;15.57;4.88;;;;;;;10.13;62.70;101921.22;5049786;28;20508;-68
2022/05/04 00:36:36;;;;;;;15.05;4.70;;;;;;;10.14;62.82;101920.22;5046726;28;20111;-68
2022/05/04 00:39:02;;;;;;;15.80;5.07;;;;;;;10.17;62.58;101933.22;5045957;28;20027;-68
2022/05/04 00:41:27;;;;;;;9.93;4.57;;;;;;;10.17;62.77;101926.09;5050266;28;20114;-68
2022/05/04 00:43:53;;;;;;;14.93;5.22;;;;;;;10.16;62.95;101929.72;5048820;28;20032;-67
2022/05/04 00:46:20;;;;;;;12.30;4.60;;;;;;;10.13;62.63;101923.88;5054144;28;20071;-69
2022/05/04 00:48:45;;;;;;;10.68;4.82;;;;;;;10.15;62.64;101933.34;5049481;28;20032;-69
2022/05/04 00:51:10;;;;;;;10.45;4.93;;;;;;;10.20;63.00;101932.94;5046008;28;20037;-69
2022/05/04 00:53:37;;;;;;;16.55;5.68;;;;;;;10.11;62.80;101937.25;5053442;28;20033;-69
2022/05/04 00:56:04;;;;;;;12.73;4.95;;;;;;;10.13;62.77;101932.66;5046730;28;20120;-68
2022/05/04 01:01:16;;;;;;;17.45;5.57;;;;;;;10.10;62.95;101922.31;5048654;28;20112;-69
2022/05/04 01:03:41;;;;;;;14.20;5.20;;;;;;;10.11;62.98;101921.31;5048897;28;20024;-69
2022/05/04 01:06:07;;;;;;;17.48;5.57;;;;;;;10.09;62.98;101922.44;5048004;28;20528;-69
2022/05/04 01:08:32;;;;;;;14.82;5.00;;;;;;;10.12;62.98;101920.38;5052836;28;20025;-69
2022/05/04 01:10:57;;;;;;;14.93;5.72;;;;;;;10.10;63.09;101924.94;5052119;28;20033;-69
2022/05/04 01:13:22;;;;;;;11.13;5.32;;;;;;;10.07;62.79;101921.75;5046138;28;20025;-68
2022/05/04 01:15:49;;;;;;;14.00;5.43;;;;;;;9.99;63.45;101916.31;5049283;28;20055;-68
2022/05/04 01:18:15;;;;;;;15.13;5.45;;;;;;;10.02;63.49;101921.34;5048371;28;20056;-68
2022/05/04 01:20:40;;;;;;;14.45;5.88;;;;;;;9.98;63.31;101917.28;5052321;28;20521;-68
2022/05/04 01:23:05;;;;;;;18.33;5.85;;;;;;;9.96;63.65;101914.78;5045241;28;20039;-68
2022/05/04 01:25:31;;;;;;;14.90;5.57;;;;;;;9.94;63.56;101920.22;5050432;28;20207;-68
2022/05/04 01:27:56;;;;;;;14.98;6.28;;;;;;;9.93;63.64;101920.38;5045817;28;20035;-68
2022/05/04 01:30:22;;;;;;;12.45;5.53;;;;;;;9.91;63.98;101924.97;5045659;28;20421;-68
2022/05/04 01:32:47;;;;;;;13.77;5.88;;;;;;;9.90;63.32;101923.31;5047502;28;20044;-68
2022/05/04 01:35:14;;;;;;;12.43;5.55;;;;;;;9.92;63.45;101924.00;5046618;28;20025;-68
2022/05/04 01:37:39;;;;;;;17.40;5.72;;;;;;;9.86;63.63;101917.44;5048595;28;20383;-68
2022/05/04 01:40:05;;;;;;;14.55;5.50;;;;;;;9.82;63.46;101916.03;5051663;28;20104;-68
2022/05/04 01:42:30;;;;;;;14.80;5.38;;;;;;;9.83;63.52;101920.38;5049153;28;20087;-68
2022/05/04 01:44:56;;;;;;;14.13;5.75;;;;;;;9.84;63.64;101915.91;5050266;28;20041;-68
2022/05/04 01:47:21;;;;;;;13.93;5.38;;;;;;;9.87;63.56;101918.28;5046957;28;20041;-68
2022/05/04 01:49:47;;;;;;;14.20;5.38;;;;;;;9.88;63.46;101917.31;5050594;28;20029;-68
2022/05/04 01:52:12;;;;;;;13.10;5.43;;;;;;;9.91;63.47;101914.38;5047038;28;20574;-68
2022/05/04 01:54:37;;;;;;;15.40;5.18;;;;;;;9.85;63.37;101904.31;5047798;28;20044;-68
2022/05/04 01:57:03;;;;;;;15.70;4.95;;;;;;;9.86;63.35;101911.31;5048240;28;20036;-67
2022/05/04 01:59:28;;;;;;;12.73;5.20;;;;;;;9.87;63.44;101907.66;5050136;28;20039;-68
2022/05/04 02:01:54;;;;;;;17.67;5.80;;;;;;;9.83;63.43;101907.13;5046689;28;20021;-68
2022/05/04 02:04:19;;;;;;;13.30;4.85;;;;;;;9.82;63.53;101912.53;5046630;28;20028;-68
2022/05/04 02:06:46;;;;;;;12.70;5.20;;;;;;;9.79;63.32;101910.16;5049639;28;20024;-68
2022/05/04 02:09:11;;;;;;;12.43;5.05;;;;;;;9.81;63.56;101918.81;5047855;28;20021;-68
2022/05/04 02:11:37;;;;;;;13.23;5.30;;;;;;;9.76;63.25;101907.78;5052808;28;20061;-68
2022/05/04 02:14:03;;;;;;;13.18;5.00;;;;;;;9.77;63.35;101909.47;5046269;28;20112;-68
2022/05/04 02:16:29;;;;;;;16.05;5.45;;;;;;;9.73;63.50;101908.91;5050624;28;20043;-68
2022/05/04 02:18:58;;;;;;;16.55;5.30;;;;;;;9.75;63.30;101914.06;5045130;28;20036;-68
2022/05/04 02:21:24;;;;;;;13.93;5.38;;;;;;;9.75;63.21;101908.75;5049923;28;20029;-69
2022/05/04 02:23:50;;;;;;;11.95;5.00;;;;;;;9.72;63.39;101903.75;5042006;28;20103;-68
2022/05/04 02:26:15;;;;;;;12.48;5.20;;;;;;;9.74;63.15;101912.41;5046402;28;20448;-67
2022/05/04 02:28:40;;;;;;;17.15;5.03;;;;;;;9.74;63.14;101901.78;5045825;28;20549;-68
2022/05/04 02:31:06;;;;;;;13.43;4.88;;;;;;;9.66;63.10;101894.53;5044930;28;20032;-68
2022/05/04 02:33:31;;;;;;;15.90;5.18;;;;;;;9.68;63.13;101897.88;5046305;28;20033;-68
2022/05/04 02:38:40;;;;;;;14.75;5.30;;;;;;;9.70;63.13;101900.38;5040377;28;20347;-68
2022/05/04 02:41:06;;;;;;;15.93;5.30;;;;;;;9.72;63.16;101901.09;5048128;28;20486;-68
2022/05/04 02:43:32;;;;;;;16.10;5.65;;;;;;;9.66;63.38;101894.53;5039227;28;20078;-69
2022/05/04 02:46:10;;;;;;;12.15;5.22;;;;;;;9.69;63.38;101902.19;5075852;28;20104;-68
2022/05/04 02:48:35;;;;;;;12.20;5.03;;;;;;;9.67;63.32;101898.03;5049719;28;20036;-68
2022/05/04 02:51:00;;;;;;;12.10;5.05;;;;;;;9.66;63.33;101899.84;5053002;28;20046;-68
2022/05/04 02:53:26;;;;;;;16.45;5.85;;;;;;;9.57;63.26;101901.50;5051975;28;20025;-68
2022/05/04 02:55:51;;;;;;;15.95;5.43;;;;;;;9.57;63.26;101898.84;5047238;28;20040;-68
2022/05/04 02:58:16;;;;;;;16.85;5.63;;;;;;;9.60;63.34;101895.94;5046583;28;20044;-68
2022/05/04 03:00:41;;;;;;;12.32;5.70;;;;;;;9.58;63.64;101891.75;5049103;28;20037;-68
2022/05/04 03:03:07;;;;;;;16.55;5.90;;;;;;;9.55;63.50;101898.16;5049450;28;20072;-68
2022/05/04 03:05:32;;;;;;;14.32;5.65;;;;;;;9.53;63.02;101899.25;5044372;28;20037;-68
2022/05/04 03:07:57;;;;;;;14.93;5.63;;;;;;;9.55;63.44;101898.16;5046694;28;20056;-68
2022/05/04 03:10:23;;;;;;;16.70;5.35;;;;;;;9.46;63.54;101892.81;5045971;28;20481;-69
2022/05/04 03:12:48;;;;;;;14.07;5.50;;;;;;;9.47;63.57;101890.03;5048121;28;20028;-69
2022/05/04 03:15:13;;;;;;;17.67;5.70;;;;;;;9.41;63.67;101889.75;5077091;28;20060;-68
2022/05/04 03:17:39;;;;;;;18.80;5.90;;;;;;;9.45;63.95;101891.16;5045852;28;20087;-68
2022/05/04 03:20:05;;;;;;;14.35;5.80;;;;;;;9.43;63.53;101888.63;5052089;28;20025;-68
2022/05/04 03:22:32;;;;;;;11.85;5.45;;;;;;;9.41;63.60;101884.44;5043202;28;20413;-68
2022/05/04 03:24:58;;;;;;;13.32;5.55;;;;;;;9.41;63.89;101881.78;5037423;28;20111;-68
2022/05/04 03:27:23;;;;;;;12.57;5.57;;;;;;;9.41;64.05;101885.28;5040630;28;20115;-68
2022/05/04 03:29:48;;;;;;;12.32;5.75;;;;;;;9.40;63.96;101882.78;5051219;28;20034;-68
2022/05/04 03:32:14;;;;;;;14.73;5.45;;;;;;;9.36;64.03;101881.38;5047275;28;20029;-67
2022/05/04 03:34:39;;;;;;;12.95;5.90;;;;;;;9.20;64.15;101868.63;5053443;28;20059;-68
2022/05/04 03:37:04;;;;;;;16.88;5.90;;;;;;;9.23;64.32;101886.91;5047517;28;20029;-68
2022/05/04 03:39:30;;;;;;;16.95;6.03;;;;;;;9.18;64.15;101883.84;5049395;28;20119;-68
2022/05/04 03:41:56;;;;;;;16.70;6.22;;;;;;;9.13;64.48;101878.13;5045361;28;20018;-68
2022/05/04 03:44:21;;;;;;;13.15;5.68;;;;;;;9.04;64.44;101876.28;5046861;28;20032;-68
2022/05/04 03:46:49;;;;;;;15.68;5.95;;;;;;;8.98;64.70;101873.22;5049339;28;20043;-68
2022/05/04 03:49:17;;;;;;;16.08;6.07;;;;;;;8.98;64.58;101869.72;5050420;28;20021;-67
2022/05/04 03:51:43;;;;;;;13.65;6.13;;;;;;;9.00;64.93;101875.72;5047590;28;20036;-68
2022/05/04 03:54:09;;;;;;;15.95;5.32;;;;;;;8.99;64.77;101879.34;5053773;28;20039;-68
2022/05/04 03:56:35;;;;;;;14.55;6.18;;;;;;;8.98;64.96;101882.97;5044463;28;20075;-68
2022/05/04 03:59:01;;;;;;;13.55;6.13;;;;;;;8.91;64.98;101872.03;5051401;28;20029;-68
2022/05/04 04:01:27;;;;;;;15.77;5.43;;;;;;;8.88;64.97;101874.97;5046376;28;20039;-68
2022/05/04 04:03:52;;;;;;;18.48;5.57;;;;;;;8.88;65.15;101877.63;5053189;28;20033;-68
2022/05/04 04:06:17;;;;;;;19.20;6.10;;;;;;;8.88;64.95;101874.97;5048943;28;20253;-68
2022/05/04 04:08:42;;;;;;;18.02;5.75;;;;;;;8.86;65.15;101871.63;5045912;28;20029;-67
2022/05/04 04:11:08;;;;;;;15.02;6.30;;;;;;;8.86;65.22;101878.72;5050861;28;20446;-67
2022/05/04 04:13:33;;;;;;;14.70;5.90;;;;;;;8.86;65.07;101873.44;5050145;28;20040;-68
2022/05/04 04:15:58;;;;;;;17.20;5.75;;;;;;;8.82;64.98;101872.84;5048615;28;20036;-67
2022/05/04 04:18:25;;;;;;;17.65;5.97;;;;;;;8.80;65.16;101874.81;5050929;28;20040;-67
2022/05/04 04:23:36;;;;;;;17.10;6.35;;;;;;;8.69;65.15;101873.09;5046546;28;20119;-68
2022/05/04 04:26:03;;;;;;;14.40;6.15;;;;;;;8.69;65.22;101880.22;5044938;28;20111;-68
2022/05/04 04:28:29;;;;;;;17.42;5.82;;;;;;;8.72;65.23;101892.34;5049004;28;20040;-68
2022/05/04 04:30:54;;;;;;;14.43;5.70;;;;;;;8.63;65.56;101875.41;5050934;28;20039;-67
2022/05/04 04:33:24;;;;;;;15.20;5.93;;;;;;;8.64;65.53;101890.34;5047794;28;20087;-68
2022/05/04 04:35:51;;;;;;;19.73;7.22;;;;;;;8.56;65.72;101880.41;5047893;28;20028;-68
2022/05/04 04:38:16;;;;;;;16.98;6.20;;;;;;;8.58;65.65;101889.06;5049901;28;20040;-67
2022/05/04 04:40:42;;;;;;;13.95;5.70;;;;;;;8.51;65.86;101889.72;5053260;28;20021;-68
2022/05/04 04:43:07;;;;;;;14.35;5.72;;;;;;;8.51;65.81;101893.22;5048919;28;20029;-67
2022/05/04 04:45:32;;;;;;;15.10;6.18;;;;;;;8.54;65.91;101892.94;5048892;28;20037;-67
2022/05/04 04:47:58;;;;;;;17.73;6.15;;;;;;;8.52;66.27;101881.66;5049406;28;20500;-68
2022/05/04 04:50:23;;;;;;;19.50;6.15;;;;;;;8.55;66.33;101893.78;5048421;28;20041;-68
2022/05/04 04:52:49;;;;;;;19.30;6.50;;;;;;;8.55;66.34;101883.19;5073629;28;20409;-68
2022/05/04 04:55:14;;;;;;;21.05;6.38;;;;;;;8.60;66.27;101880.97;5049332;28;20025;-68
2022/05/04 04:57:39;;;;;;;14.63;5.90;;;;;;;8.62;66.58;101886.97;5044816;28;20098;-68
2022/05/04 05:00:06;;;;;;;20.52;7.00;;;;;;;8.65;66.51;101892.00;5040793;28;20562;-67
2022/05/04 05:02:31;;;;;;;21.30;7.35;;;;;;;8.67;66.90;101890.06;5048362;28;20036;-68
2022/05/04 05:04:57;;;;;;;17.80;6.65;;;;;;;8.67;66.65;101890.94;5046809;28;20032;-68
2022/05/04 05:07:22;;;;;;;18.95;6.55;;;;;;;8.68;66.90;101878.53;5054142;28;20024;-68
2022/05/04 05:09:48;;;;;;;21.08;6.72;;;;;;;8.75;66.63;101892.91;5044940;28;20033;-68
2022/05/04 05:12:13;;;;;;;18.02;6.38;;;;;;;8.77;66.52;101890.13;5048502;28;20067;-69
2022/05/04 05:17:23;;;;;;;16.17;7.10;;;;;;;8.83;66.83;101882.47;5048780;28;20137;-68
2022/05/04 05:19:48;;;;;;;21.58;7.32;;;;;;;8.91;66.57;101897.69;5045927;28;20063;-68
2022/05/04 05:22:14;;;;;;;19.00;6.82;;;;;;;9.00;66.86;101903.06;5045081;28;20020;-68
2022/05/04 05:24:39;;;;;;;18.70;7.03;;;;;;;9.10;66.46;101894.28;5049507;28;20085;-68
2022/05/04 05:27:07;;;;;;;15.18;6.18;;;;;;;9.14;66.46;101895.69;5050458;28;20037;-68
2022/05/04 05:29:32;;;;;;;22.45;7.03;;;;;;;9.19;66.32;101893.47;5043804;28;20032;-68
2022/05/04 05:31:57;;;;;;;18.95;6.75;;;;;;;9.22;66.11;101896.69;5048022;28;20402;-68
2022/05/04 05:34:23;;;;;;;22.02;6.32;;;;;;;9.29;66.05;101891.69;5045722;28;20112;-68
2022/05/04 05:36:48;;;;;;;15.43;7.00;;;;;;;9.30;65.91;101901.31;5046629;28;20058;-68
2022/05/04 05:39:13;;;;;;;18.60;6.60;;;;;;;9.32;65.69;101892.25;5047302;28;20619;-68
2022/05/04 05:41:38;;;;;;;19.27;6.60;;;;;;;9.38;65.58;101893.50;5043947;28;20083;-68
2022/05/04 05:44:04;;;;;;;19.88;6.50;;;;;;;9.38;65.41;101895.34;5051205;28;20524;-68
2022/05/04 05:46:29;;;;;;;20.20;6.82;;;;;;;9.41;65.48;101890.59;5046130;28;20079;-68
2022/05/04 05:48:55;;;;;;;18.45;6.38;;;;;;;9.44;65.42;101889.47;5048521;28;20514;-68
2022/05/04 05:51:20;;;;;;;17.30;6.22;;;;;;;9.46;65.53;101895.47;5046559;28;20593;-67
2022/05/04 05:53:45;;;;;;;14.93;5.78;;;;;;;9.50;64.97;101891.56;5042667;28;20450;-68
2022/05/04 05:56:11;;;;;;;18.40;6.07;;;;;;;9.52;64.67;101898.41;5047328;28;20028;-69
2022/05/04 05:58:36;;;;;;;17.95;5.60;;;;;;;9.54;64.71;101901.78;5050028;28;20028;-68
2022/05/04 06:01:01;;;;;;;15.57;4.97;;;;;;;9.51;64.10;101899.38;5047398;28;20033;-68
2022/05/04 06:03:28;;;;;;;16.02;5.15;;;;;;;9.51;63.61;101896.72;5044233;28;20036;-67
2022/05/04 06:05:53;;;;;;;17.83;4.78;;;;;;;9.58;63.63;101907.66;5045298;28;20029;-68
2022/05/04 06:08:18;;;;;;;13.25;5.32;;;;;;;9.61;63.47;101908.22;5043858;28;20037;-68
2022/05/04 06:10:44;;;;;;;20.02;5.20;;;;;;;9.60;63.29;101903.03;5052250;28;20036;-68
2022/05/04 06:13:09;;;;;;;18.67;5.22;;;;;;;9.63;63.09;101905.41;5048363;28;20092;-67
2022/05/04 06:15:35;;;;;;;14.48;4.88;;;;;;;9.68;62.84;101900.53;5050138;28;20115;-67
2022/05/04 06:18:01;;;;;;;13.73;5.40;;;;;;;9.74;62.74;101907.94;5050987;28;20052;-68
2022/05/04 06:20:26;;;;;;;15.02;5.35;;;;;;;9.78;62.32;101908.47;5044714;28;20615;-68
2022/05/04 06:22:52;;;;;;;17.25;5.93;;;;;;;9.82;62.23;101904.56;5046578;28;20067;-68
2022/05/04 06:25:17;;;;;;;17.25;4.47;;;;;;;9.85;62.96;101904.31;5042661;28;20104;-67
2022/05/04 06:27:42;;;;;;;18.00;5.22;;;;;;;9.92;62.43;101913.38;5045338;28;20025;-68
2022/05/04 06:35:38;;;;;;;11.82;4.80;;;;;;;10.08;61.65;101913.63;5045557;28;20083;-68
2022/05/04 06:38:03;;;;;;;15.48;4.50;;;;;;;10.15;61.26;101913.94;5047225;28;20403;-67
2022/05/04 06:40:28;;;;;;;17.77;4.97;;;;;;;10.22;60.82;101915.91;5043818;28;20103;-68
2022/05/04 06:42:54;;;;;;;11.45;4.70;;;;;;;10.20;60.73;101915.22;5043790;28;20105;-68
2022/05/04 06:45:19;;;;;;;13.38;4.63;;;;;;;10.33;60.82;101914.06;5046694;28;20036;-68
2022/05/04 06:47:44;;;;;;;17.23;5.32;;;;;;;10.36;60.70;101917.28;5047166;28;20035;-68
2022/05/04 06:50:10;;;;;;;14.73;4.90;;;;;;;10.45;60.50;101920.91;5049928;28;20021;-68
2022/05/04 06:52:37;;;;;;;13.40;4.68;;;;;;;10.58;60.71;101915.28;5049456;28;20029;-68
2022/05/04 06:55:03;;;;;;;18.58;5.13;;;;;;;10.65;60.28;101919.84;5042925;28;20055;-68
2022/05/04 06:57:28;;;;;;;15.00;4.43;;;;;;;10.73;60.28;101916.50;5046931;28;20033;-68
2022/05/04 06:59:54;;;;;;;17.27;5.32;;;;;;;10.78;60.21;101911.59;5044238;28;20052;-68
2022/05/04 07:02:19;;;;;;;17.25;5.30;;;;;;;10.83;60.22;101915.47;5051035;28;20031;-68
2022/05/04 07:04:45;;;;;;;16.45;4.80;;;;;;;10.89;60.04;101921.19;5046205;28;20033;-68
2022/05/04 07:07:10;;;;;;;13.20;4.70;;;;;;;10.89;59.51;101899.91;5050276;28;20068;-68
2022/05/04 07:09:35;;;;;;;13.02;4.55;;;;;;;10.95;59.55;101905.47;5048215;28;20071;-67
2022/05/04 07:12:02;;;;;;;13.23;4.53;;;;;;;11.00;59.31;101913.03;5043945;28;20371;-69
2022/05/04 07:14:27;;;;;;;11.07;4.07;;;;;;;11.03;58.90;101918.91;5043571;28;20486;-69
2022/05/04 07:16:53;;;;;;;10.75;4.35;;;;;;;11.03;58.19;101920.72;5047443;28;20029;-68
2022/05/04 07:19:18;;;;;;;12.70;4.45;;;;;;;11.08;58.07;101913.97;5050073;28;20036;-68
2022/05/04 07:21:45;;;;;;;11.05;4.82;;;;;;;11.12;57.94;101914.50;5050460;28;20553;-68
2022/05/04 07:24:11;;;;;;;14.45;5.25;;;;;;;11.18;57.77;101916.56;5048177;28;20028;-68
2022/05/04 07:26:37;;;;;;;11.68;4.60;;;;;;;11.22;57.87;101909.13;5050497;28;20040;-68
2022/05/04 07:29:02;;;;;;;12.63;5.20;;;;;;;11.27;57.46;101917.50;5047560;28;20017;-68
2022/05/04 07:31:28;;;;;;;10.20;5.20;;;;;;;11.34;57.46;101914.09;5049048;28;20122;-68
2022/05/04 07:33:53;;;;;;;12.75;4.85;;;;;;;11.31;57.07;101914.41;5047964;28;20056;-69
2022/05/04 07:36:18;;;;;;;13.55;4.95;;;;;;;11.39;57.30;101911.84;5049913;28;20044;-68
2022/05/04 07:38:43;;;;;;;13.50;4.97;;;;;;;11.38;57.03;101906.66;5047395;28;20022;-68
2022/05/04 07:43:53;;;;;;;14.85;6.28;;;;;;;11.46;57.25;101910.25;5047882;28;20052;-68
2022/05/04 07:46:18;;;;;;;13.45;5.22;;;;;;;11.49;57.46;101907.28;5054267;28;20037;-68
2022/05/04 07:48:44;;;;;;;13.38;6.57;;;;;;;11.55;56.50;101913.81;5044553;28;20028;-68
2022/05/04 07:51:09;;;;;;;10.90;5.45;;;;;;;11.53;56.49;101920.28;5054374;28;20043;-68
2022/05/04 07:53:35;;;;;;;16.60;6.38;;;;;;;11.47;56.45;101909.25;5050724;28;20032;-68
2022/05/04 07:56:00;;;;;;;13.75;5.72;;;;;;;11.49;56.51;101907.28;5049562;28;20452;-68
2022/05/04 07:58:25;;;;;;;11.63;5.78;;;;;;;11.56;56.44;101920.81;5048574;28;20055;-69
2022/05/04 08:06:20;;;;;;;14.35;6.30;;;;;;;11.66;56.58;101926.09;5046363;28;20044;-68
2022/05/04 08:08:45;;;;;;;14.70;6.78;;;;;;;11.49;55.99;101920.56;5050005;28;20028;-68
2022/05/04 08:11:10;;;;;;;14.35;6.40;;;;;;;11.34;55.35;101922.09;5049603;28;20029;-68
2022/05/04 08:13:35;;;;;;;16.63;6.50;;;;;;;11.28;55.59;101928.00;5043094;28;20438;-68
2022/05/04 08:16:01;;;;;;;16.13;6.50;;;;;;;11.32;56.47;101924.06;5044263;28;20017;-68
2022/05/04 08:18:26;;;;;;;13.52;6.18;;;;;;;11.37;56.26;101923.63;5050492;28;20490;-68
2022/05/04 08:20:52;;;;;;;15.93;7.38;;;;;;;11.53;56.57;101923.78;5049238;28;20501;-67
2022/05/04 08:23:17;;;;;;;13.50;6.80;;;;;;;11.53;56.30;101920.28;5048997;28;20470;-67
2022/05/04 08:25:44;;;;;;;16.65;7.10;;;;;;;11.47;56.07;101911.91;5049361;28;20025;-67
2022/05/04 08:28:12;;;;;;;16.85;7.30;;;;;;;11.44;55.77;101917.53;5049539;28;20832;-68
2022/05/04 08:30:38;;;;;;;19.17;7.00;;;;;;;11.54;56.44;101921.94;5046963;28;20104;-68
2022/05/04 08:33:03;;;;;;;15.15;7.60;;;;;;;11.55;56.46;101918.28;5047216;28;20033;-68
2022/05/04 08:35:28;;;;;;;16.15;7.10;;;;;;;11.66;55.71;101924.25;5049833;28;20101;-68
2022/05/04 08:37:54;;;;;;;17.80;7.53;;;;;;;11.78;55.88;101925.72;5049161;28;20017;-69
2022/05/04 08:40:19;;;;;;;14.02;7.45;;;;;;;11.88;56.29;101932.81;5049726;28;20151;-68
2022/05/04 08:42:45;;;;;;;14.88;7.57;;;;;;;11.95;56.00;101932.06;5049190;28;20532;-68
2022/05/04 08:45:11;;;;;;;13.88;7.03;;;;;;;11.96;55.84;101923.06;5048542;28;20428;-68
2022/05/04 08:47:39;;;;;;;16.33;7.35;;;;;;;12.03;55.42;101925.94;5048839;28;20029;-68
2022/05/04 08:50:10;;;;;;;13.52;7.13;;;;;;;12.14;55.71;101919.53;5047714;28;20025;-68
2022/05/04 08:52:38;;;;;;;16.55;7.38;;;;;;;12.23;55.19;101918.63;5047358;28;20036;-68
2022/05/04 08:55:04;;;;;;;13.95;7.63;;;;;;;12.32;55.53;101913.19;5043563;28;20017;-67
2022/05/04 08:57:31;;;;;;;14.57;7.78;;;;;;;12.43;55.90;101924.59;5054963;28;20024;-66
2022/05/04 08:59:56;;;;;;;19.00;8.05;;;;;;;12.60;55.33;101915.72;5042658;28;20028;-67
2022/05/04 09:02:21;;;;;;;14.80;7.63;;;;;;;12.72;55.36;101919.78;5048675;28;20390;-68
2022/05/04 09:04:47;;;;;;;13.27;7.78;;;;;;;12.88;54.63;101924.38;5047269;28;20118;-68
2022/05/04 09:07:23;;;;;;;14.98;8.15;;;;;;;13.01;54.02;101919.44;5048454;28;20112;-67
2022/05/04 09:09:48;;;;;;;15.07;7.97;;;;;;;13.01;53.66;101914.13;5048270;28;20055;-67
2022/05/04 09:12:16;;;;;;;17.10;7.88;;;;;;;13.00;53.17;101923.91;5048395;28;20496;-66
2022/05/04 09:14:43;;;;;;;14.13;7.93;;;;;;;12.96;53.23;101917.25;5046718;28;20044;-67
2022/05/04 09:17:10;;;;;;;17.50;8.32;;;;;;;13.09;53.37;101919.47;5048240;28;20029;-67
2022/05/04 09:19:36;;;;;;;16.48;7.90;;;;;;;13.26;53.47;101907.88;5047971;28;20528;-67
2022/05/04 09:22:01;;;;;;;17.63;7.65;;;;;;;13.55;54.13;101911.97;5048291;28;20024;-67
2022/05/04 09:24:28;;;;;;;15.05;7.50;;;;;;;13.73;53.69;101907.34;5042127;28;20032;-67
2022/05/04 09:26:56;;;;;;;14.75;7.70;;;;;;;13.98;53.19;101908.19;5048154;28;20017;-67
2022/05/04 09:29:33;;;;;;;18.48;8.45;;;;;;;13.94;52.05;101902.34;5044550;28;20108;-67
2022/05/04 09:31:58;;;;;;;14.10;7.90;;;;;;;14.18;51.98;101906.84;5046822;28;20132;-67
2022/05/04 09:34:33;;;;;;;20.05;8.90;;;;;;;14.43;52.42;101901.50;5041331;28;20110;-68
2022/05/04 09:45:36;;;;;;;17.02;8.18;;;;;;;15.16;50.71;101895.91;5042166;28;20039;-67
2022/05/04 09:48:03;;;;;;;17.30;8.88;;;;;;;15.33;50.72;101886.81;5045350;28;20104;-67
2022/05/04 09:50:28;;;;;;;16.83;8.23;;;;;;;15.59;50.63;101891.00;5040039;28;20021;-67
2022/05/04 09:52:57;;;;;;;13.20;7.53;;;;;;;15.69;49.78;101899.66;5046376;28;20029;-67
2022/05/04 09:55:26;;;;;;;17.92;8.70;;;;;;;15.52;48.32;101893.53;5046244;28;20403;-67
2022/05/04 09:57:53;;;;;;;17.75;8.15;;;;;;;15.57;49.22;101895.69;5041091;28;20052;-67
2022/05/04 10:00:21;;;;;;;19.23;8.30;;;;;;;15.75;48.84;101894.41;5039585;28;20033;-67
2022/05/04 10:02:50;;;;;;;14.18;8.15;;;;;;;15.72;47.76;101894.78;5043767;28;20139;-68
2022/05/04 10:05:17;;;;;;;17.48;8.90;;;;;;;15.85;47.47;101901.38;5040780;28;20027;-67
2022/05/04 10:07:42;;;;;;;18.48;8.25;;;;;;;16.03;47.79;101891.19;5041290;28;20032;-66
2022/05/04 10:10:09;;;;;;;13.05;7.82;;;;;;;15.99;46.55;101897.91;5049111;28;20020;-67
2022/05/04 10:12:39;;;;;;;15.32;8.30;;;;;;;15.57;46.29;101891.16;5044989;28;20067;-67
2022/05/04 10:15:07;;;;;;;18.42;8.82;;;;;;;15.56;46.42;101894.00;5040575;28;20052;-67
2022/05/04 10:17:35;;;;;;;14.25;7.97;;;;;;;15.81;48.10;101890.19;5044789;28;20047;-67
2022/05/04 10:20:15;;;;;;;16.88;8.88;;;;;;;16.00;47.71;101880.84;5046356;28;20064;-68
2022/05/04 10:22:57;;;;;;;17.95;9.77;;;;;;;16.25;47.97;101879.59;5042947;28;20071;-67
2022/05/04 10:25:24;;;;;;;15.52;8.57;;;;;;;16.21;46.98;101889.03;5046743;28;20033;-67
2022/05/04 10:27:50;;;;;;;18.45;8.80;;;;;;;16.43;46.95;101882.75;5047926;28;20033;-67
2022/05/04 10:30:31;;;;;;;16.05;8.70;;;;;;;16.50;46.38;101887.41;5044033;28;20017;-67
2022/05/04 10:32:58;;;;;;;14.65;8.27;;;;;;;16.70;46.44;101886.69;5040793;28;20029;-67
2022/05/04 10:35:30;;;;;;;19.30;9.00;;;;;;;16.88;46.37;101885.47;5039695;28;20568;-68
2022/05/04 10:37:55;;;;;;;15.43;8.50;;;;;;;16.98;46.02;101886.84;5044660;28;20028;-67
2022/05/04 10:40:25;;;;;;;14.52;8.77;;;;;;;17.39;46.06;101880.13;5044734;28;20039;-68
2022/05/04 10:42:57;;;;;;;14.77;8.90;;;;;;;17.41;44.91;101873.53;5044124;28;20017;-68
2022/05/04 10:45:28;;;;;;;15.30;8.48;;;;;;;17.57;44.76;101878.63;5045740;28;20020;-68
2022/05/04 10:48:12;;;;;;;17.88;8.73;;;;;;;17.40;44.45;101876.41;5046084;28;20024;-68
2022/05/04 10:50:55;;;;;;;16.25;8.52;;;;;;;17.44;44.47;101875.00;5040631;28;20143;-69
2022/05/04 10:53:23;;;;;;;15.10;8.63;;;;;;;17.70;44.95;101871.78;5046286;28;20501;-68
2022/05/04 10:56:01;;;;;;;16.42;8.43;;;;;;;17.79;43.88;101876.81;5046653;28;20059;-68
2022/05/04 10:58:35;;;;;;;13.18;8.02;;;;;;;17.94;43.71;101876.75;5045319;28;20036;-68
2022/05/04 11:01:05;;;;;;;10.85;7.68;;;;;;;18.17;43.63;101879.19;5046131;28;20025;-68
2022/05/04 11:03:33;;;;;;;17.02;8.45;;;;;;;17.89;42.88;101874.63;5045823;28;20024;-69
2022/05/04 11:06:02;;;;;;;19.20;8.77;;;;;;;18.10;43.01;101872.94;5046086;28;20033;-68
2022/05/04 11:08:34;;;;;;;15.57;7.90;;;;;;;18.01;42.84;101872.25;5043212;28;20029;-67
2022/05/04 11:11:00;;;;;;;15.98;8.35;;;;;;;17.74;41.78;101859.63;5036617;28;20030;-68
2022/05/04 11:13:25;;;;;;;15.32;9.18;;;;;;;17.76;42.11;101868.31;5045267;28;20094;-68
2022/05/04 11:15:52;;;;;;;17.30;8.48;;;;;;;17.73;41.92;101876.78;5043314;28;20065;-67
2022/05/04 11:18:19;;;;;;;18.38;7.97;;;;;;;17.92;42.19;101862.66;5036212;28;20111;-68
2022/05/04 11:20:47;;;;;;;14.50;8.10;;;;;;;17.87;42.48;101868.63;5043192;28;20103;-68
2022/05/04 11:23:13;;;;;;;16.27;8.43;;;;;;;17.70;41.28;101852.97;5043922;28;20024;-68
2022/05/04 11:25:38;;;;;;;13.70;8.00;;;;;;;17.68;41.63;101852.34;5043196;28;20083;-68
2022/05/04 11:28:03;;;;;;;18.70;7.90;;;;;;;17.71;42.22;101849.25;5046046;28;20025;-69
2022/05/04 11:30:30;;;;;;;16.27;7.70;;;;;;;17.54;41.11;101857.53;5045458;28;20032;-69
2022/05/04 11:32:55;;;;;;;16.88;8.13;;;;;;;17.43;40.77;101851.84;5045862;28;20029;-69
2022/05/04 11:35:21;;;;;;;15.55;8.25;;;;;;;17.77;42.20;101848.50;5045801;28;20021;-69
2022/05/04 11:37:46;;;;;;;14.80;8.02;;;;;;;17.73;41.40;101853.41;5046377;28;20032;-69
2022/05/04 11:40:15;;;;;;;15.63;8.20;;;;;;;17.52;40.74;101845.31;5045716;28;20036;-68
2022/05/04 11:42:40;;;;;;;14.45;7.97;;;;;;;17.38;40.76;101844.38;5045235;28;20021;-69
2022/05/04 11:45:06;;;;;;;13.90;7.70;;;;;;;17.52;41.49;101846.16;5043059;28;20504;-69
2022/05/04 11:47:31;;;;;;;14.40;7.15;;;;;;;17.84;41.90;101850.19;5045235;28;20040;-69
2022/05/04 11:49:56;;;;;;;12.18;7.55;;;;;;;18.17;42.17;101850.47;5046740;28;20036;-69